Time;durP1;ratioP1;P1;durP2;ratioP2;P2;SDS_P1;SDS_P2;PMS_P1;PMS_P2;Temp;Humidity;BMP_temperature;BMP_pressure;BME280_temperature;BME280_humidity;BME280_pressure;Samples;Min_cycle;Max_cycle;Signal;HPM_P1;HPM_P2
2024/03/28 00:00:06;;;;;;;7.50;2.40;;;;;;;14.59;55.14;101315.36;106836;1259;22558;-54
2024/03/28 00:02:34;;;;;;;9.10;2.50;;;;;;;14.58;55.14;101312.27;107017;1263;22607;-55
2024/03/28 00:05:01;;;;;;;10.70;3.10;;;;;;;14.56;55.08;101313.34;107110;1257;25497;-55
2024/03/28 00:07:29;;;;;;;10.30;2.60;;;;;;;14.56;55.05;101313.89;107127;1254;23907;-54
2024/03/28 00:09:56;;;;;;;12.60;3.10;;;;;;;14.55;55.03;101313.39;107145;1252;25455;-55
2024/03/28 00:12:23;;;;;;;11.00;2.70;;;;;;;14.53;55.03;101306.80;107057;1254;25369;-56
2024/03/28 00:14:50;;;;;;;7.00;2.30;;;;;;;14.55;54.94;101303.10;106858;1260;25496;-55
2024/03/28 00:17:17;;;;;;;6.60;2.90;;;;;;;14.54;54.86;101298.23;106959;1263;25376;-55
2024/03/28 00:19:44;;;;;;;12.20;3.40;;;;;;;14.51;54.86;101298.48;106787;1263;24374;-55
2024/03/28 00:22:11;;;;;;;8.40;2.70;;;;;;;14.50;54.83;101293.27;106621;1274;25487;-55
2024/03/28 00:24:42;;;;;;;9.70;2.30;;;;;;;14.50;54.82;101296.09;106841;1267;25347;-55
2024/03/28 00:27:09;;;;;;;8.90;2.70;;;;;;;14.48;54.81;101296.30;106700;1256;25488;-55
2024/03/28 00:29:36;;;;;;;7.80;2.60;;;;;;;14.35;55.17;101292.50;106871;1259;25369;-55
2024/03/28 00:32:03;;;;;;;9.50;3.60;;;;;;;14.27;55.49;101292.89;107096;1257;24212;-55
2024/03/28 00:34:30;;;;;;;5.30;2.20;;;;;;;14.25;55.48;101283.87;107070;1257;25347;-55
2024/03/28 00:36:57;;;;;;;7.80;2.60;;;;;;;14.24;55.44;101282.14;107177;1254;25341;-55
2024/03/28 00:39:24;;;;;;;6.20;2.20;;;;;;;14.24;55.45;101274.10;107093;1257;25424;-55
2024/03/28 00:41:52;;;;;;;10.30;3.40;;;;;;;14.23;55.47;101269.25;107106;1251;25366;-55
2024/03/28 00:44:18;;;;;;;8.70;3.00;;;;;;;14.22;55.40;101263.00;107099;1257;25494;-55
2024/03/28 00:46:45;;;;;;;8.60;3.10;;;;;;;14.20;55.37;101259.91;107094;1263;25375;-55
2024/03/28 00:49:12;;;;;;;10.40;3.50;;;;;;;14.20;55.41;101259.92;107147;1254;23090;-55
2024/03/28 00:51:39;;;;;;;10.30;3.00;;;;;;;14.19;55.39;101258.89;107062;1256;24265;-55
2024/03/28 00:54:06;;;;;;;11.20;2.80;;;;;;;14.19;55.42;101254.90;107144;1256;25350;-55
2024/03/28 00:56:33;;;;;;;8.80;3.20;;;;;;;14.19;55.44;101250.36;106848;1258;24419;-55
2024/03/28 00:59:00;;;;;;;10.70;3.50;;;;;;;14.20;55.40;101249.80;107056;1257;23325;-55
2024/03/28 01:01:27;;;;;;;10.20;2.70;;;;;;;14.21;55.31;101252.21;107020;1257;25375;-55
2024/03/28 01:03:54;;;;;;;9.40;2.50;;;;;;;14.24;55.29;101248.12;106712;1263;25424;-54
2024/03/28 01:06:21;;;;;;;13.90;3.50;;;;;;;14.25;55.22;101247.21;107058;1256;25347;-55
2024/03/28 01:08:48;;;;;;;10.20;3.60;;;;;;;14.24;55.19;101247.23;107127;1257;24203;-54
2024/03/28 01:11:15;;;;;;;12.30;2.90;;;;;;;14.26;55.21;101247.90;107141;1257;25338;-54
2024/03/28 01:13:43;;;;;;;13.10;3.70;;;;;;;14.37;54.93;101249.33;107072;1257;25413;-54
2024/03/28 01:16:10;;;;;;;12.70;3.20;;;;;;;14.45;54.70;101245.95;107211;1262;22653;-55
2024/03/28 01:18:37;;;;;;;11.00;2.90;;;;;;;14.48;54.56;101245.69;107101;1253;25347;-54
2024/03/28 01:21:05;;;;;;;15.20;3.70;;;;;;;14.51;54.58;101245.61;107077;1254;25347;-54
2024/03/28 01:23:32;;;;;;;17.20;3.10;;;;;;;14.54;54.55;101251.61;107092;1253;25368;-54
2024/03/28 01:26:02;;;;;;;16.30;4.00;;;;;;;14.60;54.36;101251.79;106895;1257;24373;-54
2024/03/28 01:28:30;;;;;;;12.40;3.40;;;;;;;14.69;54.26;101246.45;107079;1254;25299;-54
2024/03/28 01:31:07;;;;;;;9.40;3.20;;;;;;;14.74;54.09;101238.94;107109;1254;25497;-54
2024/03/28 01:33:34;;;;;;;12.40;3.00;;;;;;;14.77;53.92;101236.60;107096;1256;23865;-54
2024/03/28 01:36:02;;;;;;;12.30;4.40;;;;;;;14.79;53.80;101235.48;107149;1257;25375;-54
2024/03/28 01:38:29;;;;;;;12.40;3.80;;;;;;;14.81;53.74;101228.95;106846;1269;25351;-54
2024/03/28 01:40:57;;;;;;;9.10;3.30;;;;;;;14.83;53.64;101225.23;107204;1254;25350;-55
2024/03/28 01:43:24;;;;;;;19.20;3.40;;;;;;;14.84;53.48;101225.05;107076;1256;25379;-54
2024/03/28 01:45:51;;;;;;;13.10;3.70;;;;;;;14.85;53.50;101226.91;106878;1266;25497;-54
2024/03/28 01:48:18;;;;;;;12.90;3.30;;;;;;;14.87;53.43;101222.48;107173;1256;25346;-54
2024/03/28 01:50:45;;;;;;;12.10;3.60;;;;;;;14.89;53.35;101225.92;106869;1259;25423;-54
2024/03/28 01:53:12;;;;;;;9.90;3.20;;;;;;;14.91;53.28;101221.65;107069;1257;25347;-54
2024/03/28 01:55:39;;;;;;;10.30;3.10;;;;;;;14.92;53.16;101208.34;107008;1257;25424;-54
2024/03/28 01:58:07;;;;;;;10.90;4.00;;;;;;;14.93;53.09;101198.19;107099;1256;25338;-55
2024/03/28 02:00:34;;;;;;;15.60;4.20;;;;;;;14.92;53.03;101194.73;106925;1260;25428;-56
2024/03/28 02:03:01;;;;;;;10.40;3.60;;;;;;;14.91;53.01;101193.34;106968;1257;25375;-56
2024/03/28 02:05:29;;;;;;;13.60;3.60;;;;;;;14.91;52.88;101191.27;106816;1254;25368;-55
2024/03/28 02:07:55;;;;;;;11.40;3.70;;;;;;;14.91;52.88;101193.89;106839;1257;25561;-55
2024/03/28 02:10:22;;;;;;;11.50;3.40;;;;;;;14.89;52.96;101195.52;107101;1257;25375;-55
2024/03/28 02:12:49;;;;;;;10.70;3.60;;;;;;;14.88;52.92;101210.73;107139;1267;25488;-55
2024/03/28 02:15:16;;;;;;;6.80;2.70;;;;;;;14.90;52.93;101221.00;107086;1250;25375;-55
2024/03/28 02:17:47;;;;;;;12.80;3.30;;;;;;;14.92;52.85;101220.75;107056;1257;25366;-54
2024/03/28 02:20:15;;;;;;;16.30;2.90;;;;;;;14.93;52.84;101210.58;106809;1259;25344;-55
2024/03/28 02:22:42;;;;;;;13.00;3.40;;;;;;;14.94;52.85;101210.89;107108;1253;24255;-55
2024/03/28 02:25:09;;;;;;;11.00;3.10;;;;;;;14.96;52.80;101206.11;106870;1266;25347;-55
2024/03/28 02:27:37;;;;;;;8.90;3.40;;;;;;;14.99;52.81;101208.46;107054;1257;25423;-55
2024/03/28 02:30:08;;;;;;;8.40;2.80;;;;;;;14.99;52.74;101202.84;107088;1256;25597;-55
2024/03/28 02:32:35;;;;;;;14.10;3.50;;;;;;;15.01;52.72;101193.73;107094;1250;22527;-55
2024/03/28 02:35:06;;;;;;;7.40;2.60;;;;;;;15.02;52.69;101197.70;106874;1263;25350;-55
2024/03/28 02:37:33;;;;;;;12.60;3.40;;;;;;;15.04;52.70;101198.16;107159;1257;22653;-55
2024/03/28 02:40:01;;;;;;;12.30;3.70;;;;;;;15.05;52.69;101193.59;106905;1260;25372;-55
2024/03/28 02:42:29;;;;;;;13.90;4.00;;;;;;;15.06;52.72;101188.66;107048;1254;25372;-55
2024/03/28 02:44:56;;;;;;;15.60;3.60;;;;;;;15.06;52.63;101190.55;107098;1256;25375;-56
2024/03/28 02:47:23;;;;;;;16.20;3.80;;;;;;;15.07;52.60;101185.64;107109;1251;24230;-55
2024/03/28 02:49:50;;;;;;;13.60;4.00;;;;;;;15.07;52.60;101183.03;107141;1257;25362;-55
2024/03/28 02:52:17;;;;;;;12.80;3.40;;;;;;;15.07;52.66;101178.48;107086;1257;24379;-55
2024/03/28 02:54:43;;;;;;;12.50;3.90;;;;;;;15.07;52.70;101178.48;107109;1263;25432;-55
2024/03/28 02:57:21;;;;;;;14.50;4.70;;;;;;;15.07;52.69;101179.89;107118;1257;25611;-55
2024/03/28 02:59:48;;;;;;;12.10;3.60;;;;;;;15.07;52.75;101178.30;106967;1259;25424;-55
2024/03/28 03:02:15;;;;;;;14.40;3.80;;;;;;;15.08;52.73;101173.22;107117;1254;25328;-55
2024/03/28 03:04:42;;;;;;;15.20;3.90;;;;;;;15.08;52.75;101171.83;106883;1260;25366;-55
2024/03/28 03:07:10;;;;;;;13.50;3.30;;;;;;;15.08;52.78;101173.92;107042;1263;25522;-55
2024/03/28 03:09:37;;;;;;;11.30;3.50;;;;;;;15.07;52.81;101170.09;107067;1256;25347;-55
2024/03/28 03:12:04;;;;;;;16.50;4.40;;;;;;;15.07;52.86;101166.96;107086;1257;25424;-55
2024/03/28 03:14:31;;;;;;;14.50;4.10;;;;;;;15.06;52.86;101166.46;106982;1270;22957;-55
2024/03/28 03:16:59;;;;;;;14.20;3.80;;;;;;;15.06;52.93;101171.73;107158;1257;22661;-55
2024/03/28 03:19:26;;;;;;;16.70;3.80;;;;;;;15.05;53.02;101169.64;107161;1257;25341;-55
2024/03/28 03:21:53;;;;;;;13.60;3.70;;;;;;;15.05;53.01;101166.31;107139;1257;25375;-55
2024/03/28 03:24:20;;;;;;;14.20;4.00;;;;;;;15.05;53.04;101166.86;106849;1260;25497;-55
2024/03/28 03:26:50;;;;;;;17.80;4.70;;;;;;;15.04;53.09;101162.67;107174;1267;25369;-55
2024/03/28 03:34:49;;;;;;;15.50;4.60;;;;;;;15.00;53.29;101165.95;107188;1257;25347;-55
2024/03/28 03:37:16;;;;;;;15.60;5.20;;;;;;;14.99;53.34;101161.83;107124;1257;25366;-55
2024/03/28 03:39:43;;;;;;;17.40;4.90;;;;;;;14.96;53.50;101160.69;106927;1273;25497;-55
2024/03/28 03:42:11;;;;;;;12.70;4.80;;;;;;;14.93;53.53;101159.04;106985;1257;25462;-55
2024/03/28 03:44:38;;;;;;;18.70;5.00;;;;;;;14.92;53.64;101151.55;106748;1266;25411;-54
2024/03/28 03:47:05;;;;;;;16.00;4.70;;;;;;;14.92;53.69;101154.88;106942;1257;25347;-54
2024/03/28 03:49:32;;;;;;;17.10;4.60;;;;;;;14.91;53.70;101153.34;106800;1264;25424;-54
2024/03/28 03:51:59;;;;;;;17.60;4.90;;;;;;;14.89;53.79;101148.70;106677;1260;24254;-54
2024/03/28 03:54:26;;;;;;;17.60;4.10;;;;;;;14.87;53.80;101145.09;106847;1254;25347;-54
2024/03/28 03:56:53;;;;;;;20.90;4.40;;;;;;;14.87;53.88;101145.98;106741;1267;25497;-54
2024/03/28 03:59:20;;;;;;;18.50;5.80;;;;;;;14.85;53.98;101147.59;107154;1257;25375;-55
2024/03/28 04:01:47;;;;;;;17.80;4.40;;;;;;;14.85;53.98;101145.51;107063;1257;25497;-54
2024/03/28 04:04:14;;;;;;;19.00;4.20;;;;;;;14.85;54.01;101149.88;107151;1254;22543;-54
2024/03/28 04:06:41;;;;;;;27.00;6.20;;;;;;;14.84;54.11;101144.15;106827;1267;25427;-54
2024/03/28 04:09:08;;;;;;;12.40;4.20;;;;;;;14.85;54.11;101136.95;106875;1269;25347;-54
2024/03/28 04:11:36;;;;;;;17.90;5.50;;;;;;;14.86;54.20;101134.33;106762;1273;25337;-54
2024/03/28 04:14:03;;;;;;;20.30;4.70;;;;;;;14.85;54.14;101131.36;107051;1254;25411;-54
2024/03/28 04:16:30;;;;;;;17.20;4.80;;;;;;;14.85;54.11;101132.23;107140;1256;25347;-54
2024/03/28 04:19:13;;;;;;;17.80;3.90;;;;;;;14.87;54.18;101130.26;103625;1299;544963;-54
2024/03/28 04:21:41;;;;;;;11.40;4.80;;;;;;;14.84;54.30;101124.09;105910;1285;22647;-55
2024/03/28 04:24:09;;;;;;;19.50;4.70;;;;;;;14.83;54.27;101123.77;105885;1271;22538;-54
2024/03/28 04:26:37;;;;;;;16.40;5.20;;;;;;;14.81;54.32;101123.27;105798;1269;25547;-55
2024/03/28 04:29:06;;;;;;;17.80;4.40;;;;;;;14.81;54.37;101129.24;105936;1272;24334;-55
2024/03/28 04:31:34;;;;;;;24.30;5.60;;;;;;;14.80;54.46;101127.53;105843;1282;22556;-56
2024/03/28 04:34:01;;;;;;;20.30;5.40;;;;;;;14.79;54.42;101127.35;105837;1272;236941;-55
2024/03/28 04:36:29;;;;;;;19.20;4.70;;;;;;;14.79;54.51;101125.11;106049;1269;24282;-55
2024/03/28 04:38:57;;;;;;;13.80;4.70;;;;;;;14.79;54.56;101125.27;106071;1269;22537;-55
2024/03/28 04:41:24;;;;;;;17.60;4.20;;;;;;;14.79;54.57;101126.52;106118;1270;22537;-54
2024/03/28 04:43:52;;;;;;;19.80;5.90;;;;;;;14.79;54.55;101122.84;105913;1272;22523;-55
2024/03/28 04:46:20;;;;;;;10.80;3.80;;;;;;;14.80;54.62;101124.04;106040;1270;22541;-55
2024/03/28 04:48:48;;;;;;;13.70;4.70;;;;;;;14.80;54.65;101121.57;106032;1266;22568;-55
2024/03/28 04:51:16;;;;;;;19.00;5.10;;;;;;;14.80;54.71;101113.70;105984;1272;25376;-53
2024/03/28 04:53:43;;;;;;;16.60;4.70;;;;;;;14.80;54.65;101115.29;106008;1266;22539;-55
2024/03/28 04:56:11;;;;;;;16.60;5.00;;;;;;;14.80;54.62;101113.17;105596;1273;22541;-54
2024/03/28 04:58:39;;;;;;;15.40;5.20;;;;;;;14.81;54.71;101106.02;105886;1270;23006;-55
2024/03/28 05:01:06;;;;;;;21.00;5.50;;;;;;;14.82;54.70;101105.64;105896;1282;22541;-55
2024/03/28 05:03:34;;;;;;;20.20;5.70;;;;;;;14.77;54.90;101099.32;105740;1272;22529;-55
2024/03/28 05:06:02;;;;;;;12.30;4.00;;;;;;;14.77;54.94;101096.19;105815;1271;22530;-55
2024/03/28 05:08:30;;;;;;;16.10;4.80;;;;;;;14.84;54.81;101095.59;105866;1266;25310;-55
2024/03/28 05:10:58;;;;;;;19.60;5.20;;;;;;;14.85;54.79;101096.29;106008;1270;22536;-55
2024/03/28 05:13:25;;;;;;;21.60;5.90;;;;;;;14.88;54.84;101094.59;105967;1269;22540;-55
2024/03/28 05:15:53;;;;;;;16.00;4.90;;;;;;;14.92;54.71;101092.00;105925;1272;25360;-54
2024/03/28 05:18:20;;;;;;;14.00;4.70;;;;;;;14.95;54.65;101090.66;105873;1269;22532;-54
2024/03/28 05:20:48;;;;;;;16.10;5.50;;;;;;;14.99;54.58;101089.13;106080;1272;25356;-54
2024/03/28 05:23:16;;;;;;;22.30;6.20;;;;;;;15.02;54.57;101091.81;106272;1266;22536;-54
2024/03/28 05:25:43;;;;;;;16.90;4.00;;;;;;;15.07;54.48;101088.16;106013;1266;22563;-55
2024/03/28 05:28:11;;;;;;;26.20;5.60;;;;;;;15.11;54.31;101084.35;106083;1269;22545;-55
2024/03/28 05:30:39;;;;;;;16.50;4.40;;;;;;;15.15;54.18;101076.52;106013;1271;25479;-55
2024/03/28 05:33:06;;;;;;;14.80;4.90;;;;;;;15.18;54.23;101075.36;106060;1269;22540;-55
2024/03/28 05:35:34;;;;;;;14.90;5.20;;;;;;;15.21;54.24;101076.64;105916;1272;22540;-55
2024/03/28 05:38:01;;;;;;;21.80;5.10;;;;;;;15.25;54.19;101075.29;105925;1272;22563;-56
2024/03/28 05:40:29;;;;;;;17.80;5.30;;;;;;;15.28;54.16;101076.90;106075;1270;22575;-53
2024/03/28 05:42:57;;;;;;;17.50;5.10;;;;;;;15.33;54.04;101082.34;105963;1272;22548;-54
2024/03/28 05:45:25;;;;;;;25.20;6.60;;;;;;;15.38;53.91;101074.11;106079;1271;22602;-54
2024/03/28 05:47:52;;;;;;;15.90;4.60;;;;;;;15.42;53.86;101072.39;105912;1269;22544;-53
2024/03/28 05:50:20;;;;;;;17.60;5.20;;;;;;;15.47;53.81;101069.63;105903;1272;22537;-53
2024/03/28 05:52:47;;;;;;;18.70;5.50;;;;;;;15.52;53.75;101069.23;106040;1269;22548;-54
2024/03/28 05:55:15;;;;;;;22.10;5.20;;;;;;;15.58;53.62;101073.18;105904;1272;22530;-54
2024/03/28 05:57:43;;;;;;;21.70;6.10;;;;;;;15.65;53.55;101070.83;105861;1268;22538;-54
2024/03/28 06:00:11;;;;;;;17.10;5.70;;;;;;;15.76;53.43;101072.70;105995;1272;25357;-54
2024/03/28 06:02:39;;;;;;;18.90;4.70;;;;;;;15.90;53.17;101068.30;106083;1266;25307;-54
2024/03/28 06:05:07;;;;;;;18.10;5.20;;;;;;;16.06;52.83;101066.10;105959;1272;22546;-54
2024/03/28 06:07:34;;;;;;;22.10;5.80;;;;;;;16.21;52.51;101059.89;106100;1266;26515;-54
2024/03/28 06:10:02;;;;;;;13.90;4.90;;;;;;;16.37;52.14;101055.91;106072;1269;24241;-54
2024/03/28 06:12:30;;;;;;;23.50;6.00;;;;;;;16.53;51.80;101052.67;105947;1268;22537;-54
2024/03/28 06:14:58;;;;;;;16.00;4.60;;;;;;;16.68;51.42;101045.02;106009;1267;22654;-54
2024/03/28 06:17:25;;;;;;;14.40;4.30;;;;;;;16.85;51.19;101043.25;105985;1269;22532;-54
2024/03/28 06:19:53;;;;;;;16.90;4.90;;;;;;;16.99;50.71;101045.79;106000;1269;23917;-55
2024/03/28 06:22:20;;;;;;;27.80;5.40;;;;;;;17.10;50.34;101048.45;106049;1272;24845;-55
2024/03/28 06:24:51;;;;;;;20.70;5.40;;;;;;;17.19;50.06;101048.59;105817;1274;22627;-55
2024/03/28 06:27:19;;;;;;;15.90;4.80;;;;;;;17.28;49.89;101042.94;105985;1272;24241;-55
2024/03/28 06:29:52;;;;;;;17.00;4.80;;;;;;;17.35;49.70;101041.18;105854;1269;22542;-55
2024/03/28 06:32:41;;;;;;;19.00;5.30;;;;;;;17.43;49.46;101041.52;105908;1269;25308;-55
2024/03/28 06:35:08;;;;;;;14.00;4.90;;;;;;;17.50;49.29;101037.52;106069;1274;25310;-55
2024/03/28 06:37:36;;;;;;;18.00;4.80;;;;;;;17.54;49.06;101042.77;105974;1286;25385;-54
2024/03/28 06:40:04;;;;;;;22.70;6.30;;;;;;;17.55;49.05;101039.05;105943;1281;25360;-55
2024/03/28 06:42:32;;;;;;;18.20;5.60;;;;;;;17.58;48.82;101033.51;105853;1285;24229;-55
2024/03/28 06:44:59;;;;;;;14.10;4.70;;;;;;;17.60;48.71;101028.48;105915;1272;22544;-55
2024/03/28 06:47:27;;;;;;;16.90;5.00;;;;;;;17.62;48.78;101029.45;106094;1279;23878;-55
2024/03/28 06:49:55;;;;;;;15.90;4.90;;;;;;;17.63;48.61;101022.19;106023;1281;24272;-55
2024/03/28 06:52:22;;;;;;;21.90;5.70;;;;;;;17.61;48.52;101011.23;105849;1279;26635;-55
2024/03/28 06:54:50;;;;;;;16.90;5.70;;;;;;;17.56;48.69;101012.88;105966;1287;23894;-55
2024/03/28 06:57:18;;;;;;;13.90;4.50;;;;;;;17.53;48.80;101013.19;106040;1266;22541;-55
2024/03/28 06:59:49;;;;;;;21.30;5.10;;;;;;;17.54;48.85;101011.06;106153;1269;22537;-55
2024/03/28 07:02:16;;;;;;;17.30;5.60;;;;;;;17.54;48.82;101017.19;105956;1269;24227;-55
2024/03/28 07:04:44;;;;;;;20.40;4.80;;;;;;;17.58;48.81;101010.33;105933;1286;24324;-55
2024/03/28 07:07:12;;;;;;;21.60;5.00;;;;;;;17.64;48.67;101013.02;106022;1281;26528;-55
2024/03/28 07:09:39;;;;;;;17.50;5.80;;;;;;;17.69;48.57;101002.64;106019;1280;22537;-55
2024/03/28 07:12:07;;;;;;;22.20;5.00;;;;;;;17.70;48.59;101000.24;106067;1272;22533;-55
2024/03/28 07:14:34;;;;;;;19.60;5.10;;;;;;;17.74;48.51;101000.09;106005;1270;24228;-55
2024/03/28 07:17:02;;;;;;;21.30;5.80;;;;;;;17.79;48.43;100987.36;105974;1271;22540;-55
2024/03/28 07:19:30;;;;;;;18.90;5.00;;;;;;;17.83;48.28;100980.72;105915;1269;25255;-55
2024/03/28 07:21:57;;;;;;;19.70;5.20;;;;;;;17.85;48.19;100978.52;106016;1279;23894;-55
2024/03/28 07:24:25;;;;;;;14.10;5.10;;;;;;;17.86;48.11;100982.14;106021;1285;25361;-55
2024/03/28 07:26:53;;;;;;;16.60;5.20;;;;;;;17.87;48.19;100979.47;106063;1279;22595;-55
2024/03/28 07:29:20;;;;;;;20.30;6.00;;;;;;;17.87;48.16;100978.92;105933;1266;24241;-55
2024/03/28 07:31:48;;;;;;;15.20;6.10;;;;;;;17.87;48.13;100961.70;105997;1282;25258;-55
2024/03/28 07:34:15;;;;;;;16.90;5.40;;;;;;;17.83;48.21;100956.84;105997;1282;25350;-56
2024/03/28 07:36:43;;;;;;;23.90;5.40;;;;;;;17.76;48.25;100956.81;106089;1282;22534;-57
2024/03/28 07:39:14;;;;;;;21.40;5.70;;;;;;;17.70;48.37;100950.29;106104;1281;24629;-58
2024/03/28 07:41:41;;;;;;;21.40;5.30;;;;;;;17.62;48.35;100948.20;105231;1272;1002540;-56
2024/03/28 07:44:09;;;;;;;17.20;4.90;;;;;;;17.53;48.53;100953.02;105764;1288;22529;-56
2024/03/28 07:46:36;;;;;;;21.70;5.70;;;;;;;17.45;48.81;100951.80;105967;1279;22552;-57
2024/03/28 07:49:04;;;;;;;20.90;6.50;;;;;;;17.38;49.01;100951.60;105919;1286;25514;-56
2024/03/28 07:51:32;;;;;;;19.80;5.20;;;;;;;17.32;49.20;100951.55;105949;1270;25313;-56
2024/03/28 07:53:59;;;;;;;21.80;5.40;;;;;;;17.28;49.44;100957.35;106255;1269;25379;-56
2024/03/28 07:56:27;;;;;;;21.60;5.40;;;;;;;17.26;49.48;100960.94;106251;1266;22559;-56
2024/03/28 07:58:55;;;;;;;16.20;4.50;;;;;;;17.15;49.86;100953.71;106268;1281;22534;-56
2024/03/28 08:01:22;;;;;;;21.80;5.10;;;;;;;17.08;50.15;100953.35;106180;1282;23287;-56
2024/03/28 08:03:50;;;;;;;17.10;5.40;;;;;;;17.08;50.17;100947.58;106831;1260;24394;-56
2024/03/28 08:06:17;;;;;;;20.50;5.80;;;;;;;17.09;50.21;100951.01;106515;1268;25475;-56
2024/03/28 08:08:45;;;;;;;18.50;5.10;;;;;;;17.10;50.18;100946.09;106613;1276;25317;-56
2024/03/28 08:11:13;;;;;;;21.50;6.00;;;;;;;17.10;50.19;100943.64;106353;1276;24515;-56
2024/03/28 08:13:41;;;;;;;16.70;5.50;;;;;;;17.11;50.29;100940.95;106572;1278;26525;-56
2024/03/28 08:16:09;;;;;;;19.80;5.90;;;;;;;17.13;50.26;100935.97;106748;1278;22547;-56
2024/03/28 08:18:37;;;;;;;18.40;6.00;;;;;;;17.14;50.28;100934.33;106494;1279;22535;-56
2024/03/28 08:21:04;;;;;;;29.20;5.80;;;;;;;17.15;50.25;100935.15;106578;1266;23905;-55
2024/03/28 08:23:33;;;;;;;21.90;5.30;;;;;;;17.17;50.30;100921.94;106393;1276;25252;-56
2024/03/28 08:26:01;;;;;;;19.20;5.60;;;;;;;17.19;50.36;100930.07;106635;1265;25369;-56
2024/03/28 08:28:29;;;;;;;19.50;6.20;;;;;;;17.21;50.28;100932.05;106521;1260;22704;-55
2024/03/28 08:30:57;;;;;;;23.00;5.50;;;;;;;17.22;50.21;100927.62;106346;1282;23002;-56
2024/03/28 08:33:24;;;;;;;18.30;4.70;;;;;;;17.22;50.24;100921.85;106581;1276;23366;-56
2024/03/28 08:35:53;;;;;;;24.90;6.40;;;;;;;17.23;50.19;100905.88;106554;1276;23327;-56
2024/03/28 08:38:20;;;;;;;19.60;6.00;;;;;;;17.21;50.26;100891.93;106821;1276;25290;-56
2024/03/28 08:40:48;;;;;;;18.10;4.90;;;;;;;17.18;50.36;100894.70;104260;1276;1003779;-55
2024/03/28 08:43:16;;;;;;;23.50;6.60;;;;;;;17.18;50.43;100899.62;106387;1272;24197;-56
2024/03/28 08:45:43;;;;;;;20.70;5.50;;;;;;;17.16;50.51;100892.00;106505;1279;25382;-56
2024/03/28 08:48:12;;;;;;;16.70;5.10;;;;;;;17.15;50.54;100891.17;106413;1273;24251;-57
2024/03/28 08:50:39;;;;;;;25.10;5.60;;;;;;;17.17;50.49;100896.31;106783;1273;25303;-57
2024/03/28 08:53:07;;;;;;;18.30;5.10;;;;;;;17.18;50.54;100894.02;106716;1273;22530;-57
2024/03/28 08:55:35;;;;;;;20.60;6.10;;;;;;;17.19;50.48;100892.20;106641;1274;22535;-57
2024/03/28 09:01:25;;;;;;;20.80;6.90;;;;;;;17.25;50.51;100877.88;103650;1305;545020;-55
2024/03/28 09:03:52;;;;;;;15.40;5.60;;;;;;;17.26;50.60;100879.95;105952;1285;22536;-57
2024/03/28 09:06:20;;;;;;;24.50;6.60;;;;;;;17.28;50.51;100872.12;105848;1282;24251;-55
2024/03/28 09:08:48;;;;;;;23.40;6.10;;;;;;;17.31;50.45;100865.69;105924;1280;24271;-56
2024/03/28 09:11:15;;;;;;;18.00;5.10;;;;;;;17.33;50.46;100864.87;105925;1282;23875;-56
2024/03/28 09:13:44;;;;;;;14.40;5.30;;;;;;;17.34;50.37;100865.36;105866;1280;24264;-56
2024/03/28 09:16:11;;;;;;;29.20;6.80;;;;;;;17.35;50.41;100863.36;106352;1279;253353;-56
2024/03/28 09:18:40;;;;;;;19.60;6.10;;;;;;;17.36;50.41;100862.80;106216;1281;25389;-55
2024/03/28 09:21:11;;;;;;;23.60;5.40;;;;;;;17.36;50.38;100857.86;106256;1279;22548;-56
2024/03/28 09:23:39;;;;;;;22.30;5.90;;;;;;;17.37;50.35;100853.27;106298;1280;24267;-55
2024/03/28 09:26:06;;;;;;;17.40;5.30;;;;;;;17.37;50.33;100849.61;106071;1284;24210;-55
2024/03/28 09:28:36;;;;;;;23.50;8.40;;;;;;;17.35;50.32;100854.77;106170;1279;24218;-56
2024/03/28 09:31:03;;;;;;;19.80;5.30;;;;;;;17.33;50.36;100849.80;106153;1284;25399;-57
2024/03/28 09:33:34;;;;;;;18.10;5.30;;;;;;;17.29;50.47;100854.86;106164;1283;22587;-56
2024/03/28 09:36:03;;;;;;;25.10;5.70;;;;;;;17.27;50.52;100853.43;106226;1281;22589;-56
2024/03/28 09:38:30;;;;;;;22.10;6.60;;;;;;;17.24;50.65;100849.38;106243;1281;22668;-56
2024/03/28 09:41:00;;;;;;;24.50;6.30;;;;;;;17.22;50.77;100840.34;106621;1272;25354;-56
2024/03/28 09:43:27;;;;;;;16.60;5.30;;;;;;;17.20;50.75;100839.92;106587;1277;22543;-56
2024/03/28 09:45:58;;;;;;;22.20;5.80;;;;;;;17.18;50.78;100838.42;106549;1273;22534;-57
2024/03/28 09:48:26;;;;;;;24.10;7.40;;;;;;;17.18;50.92;100841.59;106775;1272;22991;-57
2024/03/28 09:50:54;;;;;;;25.30;6.10;;;;;;;17.19;50.93;100835.60;106489;1272;22627;-57
2024/03/28 09:53:21;;;;;;;22.00;6.20;;;;;;;17.21;50.94;100838.63;106395;1272;24267;-56
2024/03/28 09:55:49;;;;;;;29.70;8.10;;;;;;;17.23;50.80;100834.82;106395;1279;25376;-56
2024/03/28 09:58:17;;;;;;;21.10;6.20;;;;;;;17.24;50.80;100834.11;106382;1278;22531;-56
2024/03/28 10:00:44;;;;;;;23.30;5.30;;;;;;;17.23;50.73;100837.65;106744;1262;24249;-55
2024/03/28 10:06:35;;;;;;;23.90;6.60;;;;;;;17.21;51.01;100830.25;103725;1302;545144;-56
2024/03/28 10:09:02;;;;;;;26.60;7.20;;;;;;;17.18;50.92;100831.06;106087;1280;22664;-56
2024/03/28 10:11:30;;;;;;;22.40;5.70;;;;;;;17.18;51.08;100824.59;106062;1282;24225;-56
2024/03/28 10:13:58;;;;;;;19.10;6.10;;;;;;;17.19;51.03;100827.33;106284;1285;22541;-55
2024/03/28 10:16:27;;;;;;;21.30;6.40;;;;;;;17.21;51.02;100825.33;106270;1264;24223;-55
2024/03/28 10:18:57;;;;;;;18.50;5.70;;;;;;;17.23;51.00;100833.98;106057;1286;24335;-56
2024/03/28 10:21:25;;;;;;;23.90;6.60;;;;;;;17.25;50.99;100831.23;105923;1279;267523;-56
2024/03/28 10:23:53;;;;;;;26.10;6.30;;;;;;;17.28;51.01;100833.05;106386;1282;25248;-56
2024/03/28 10:26:20;;;;;;;26.60;6.40;;;;;;;17.30;50.89;100836.09;106341;1281;22576;-56
2024/03/28 10:28:47;;;;;;;29.00;6.40;;;;;;;17.34;50.86;100832.41;106012;1282;22544;-56
2024/03/28 10:31:24;;;;;;;22.60;6.50;;;;;;;17.38;50.87;100839.39;106075;1282;23055;-56
2024/03/28 10:33:52;;;;;;;26.70;6.60;;;;;;;17.43;50.77;100836.83;106357;1279;24255;-56
2024/03/28 10:36:24;;;;;;;22.20;6.20;;;;;;;17.47;50.54;100833.15;106776;1270;25491;-56
2024/03/28 10:39:02;;;;;;;22.60;6.20;;;;;;;17.49;50.52;100834.10;106919;1257;23913;-56
2024/03/28 10:41:29;;;;;;;19.90;6.20;;;;;;;17.53;50.41;100829.55;106568;1270;22547;-56
2024/03/28 10:44:00;;;;;;;19.50;5.10;;;;;;;17.53;50.20;100829.53;106785;1270;25252;-56
2024/03/28 10:46:29;;;;;;;17.60;5.30;;;;;;;17.54;50.19;100830.57;106673;1256;22581;-56
2024/03/28 10:49:05;;;;;;;21.30;5.90;;;;;;;17.52;50.19;100828.92;106778;1272;25418;-56
2024/03/28 10:51:36;;;;;;;22.40;6.80;;;;;;;17.49;50.27;100824.98;106422;1278;25297;-56
2024/03/28 10:54:25;;;;;;;20.10;6.20;;;;;;;17.45;50.25;100819.21;106591;1272;23903;-56
2024/03/28 10:56:54;;;;;;;23.20;6.80;;;;;;;17.41;50.30;100819.75;106551;1272;25369;-56
2024/03/28 10:59:21;;;;;;;25.90;6.70;;;;;;;17.39;50.42;100812.33;106900;1267;22525;-56
2024/03/28 11:01:49;;;;;;;24.90;7.10;;;;;;;17.37;50.53;100805.95;106878;1267;25294;-57
2024/03/28 11:04:17;;;;;;;26.40;6.70;;;;;;;17.35;50.58;100801.64;106933;1269;25381;-56
2024/03/28 11:06:44;;;;;;;25.40;6.70;;;;;;;17.37;50.61;100804.17;107126;1267;25362;-57
2024/03/28 11:09:13;;;;;;;25.20;7.40;;;;;;;17.40;50.65;100798.25;107046;1269;23860;-57
2024/03/28 11:11:41;;;;;;;24.90;6.90;;;;;;;17.43;50.50;100799.48;107098;1267;22534;-55
2024/03/28 11:14:09;;;;;;;22.40;6.20;;;;;;;17.46;50.43;100800.05;107120;1267;22523;-55
2024/03/28 11:16:37;;;;;;;22.90;6.90;;;;;;;17.47;50.45;100796.86;107368;1267;22561;-57
2024/03/28 11:19:06;;;;;;;32.90;7.10;;;;;;;17.40;50.67;100804.56;107206;1270;22531;-56
2024/03/28 11:21:34;;;;;;;25.00;6.70;;;;;;;17.41;50.78;100801.01;107236;1267;22528;-56
2024/03/28 11:24:01;;;;;;;29.60;7.50;;;;;;;17.52;50.49;100801.37;107136;1273;22582;-57